Skip Navigation Links
NOAA logo - Click to go to the NOAA homepage
NOAA's National Weather Service
Alaska Aviation Weather Unit
  NWS logo - Click to go to the NWS homepage
Left Navbar Graphic     02 AKDT = 10 GMT

   
NOAA is celebrating 200 years of science, service, and stewardship. Visit the NOAA 200th celebration Web site to learn more.
USA.gov is the U.S. Government's official Web portal to all Federal, state and local government Web resources and services.
Facebook
NWS on Facebook

AAWU Home :: Display TAF Add Bookmark
METAR PAEG 270453Z AUTO 20003KT 10SM CLR M16/M22 A2980 RMK AO2 SLP119
     T11611222 TSNO=

METAR PAEG 270553Z AUTO 00000KT 10SM FEW120 M18/M23 A2981 RMK AO2 SLP120
     T11831233 11050 21189 53004 TSNO=

METAR PAEG 270653Z AUTO 00000KT 10SM CLR M21/M24 A2981 RMK AO2 SLP121
     T12061239 TSNO=

METAR PAEG 270753Z AUTO 00000KT 10SM CLR M22/M26 A2982 RMK AO2 SLP124
     T12221256 TSNO=

METAR PAEG 270853Z AUTO 00000KT 10SM CLR M23/M26 A2982 RMK AO2 SLP122
     T12331261 410501294 50003 TSNO=

METAR PAEG 270953Z AUTO 00000KT 10SM FEW049 M24/M27 A2983 RMK AO2 SLP124
     T12441267 TSNO=


NOAA's National Weather Service
Alaska Aviation Weather Unit
6930 Sand Lake Road
Anchorage, AK 99502-1845
Disclaimer
Credits
Glossary
Privacy Policy
About Us
Career Opportunities
Contact AAWU Internet Services Site last modified: April, 17th 2012